sensor_id;sensor_type;location;lat;lon;timestamp;pressure;altitude;pressure_sealevel;temperature;humidity
78383;BME280;67668;52.294;4.692;2023-02-28T00:00:42;103310.22;;;5.52;67.94
78383;BME280;67668;52.294;4.692;2023-02-28T00:03:08;103318.94;;;5.52;67.99
78383;BME280;67668;52.294;4.692;2023-02-28T00:05:34;103319.81;;;5.53;68.00
78383;BME280;67668;52.294;4.692;2023-02-28T00:07:59;103315.44;;;5.53;68.35
78383;BME280;67668;52.294;4.692;2023-02-28T00:10:28;103318.00;;;5.55;68.45
78383;BME280;67668;52.294;4.692;2023-02-28T00:12:56;103319.72;;;5.56;68.04
78383;BME280;67668;52.294;4.692;2023-02-28T00:15:23;103321.38;;;5.58;68.56
78383;BME280;67668;52.294;4.692;2023-02-28T00:17:49;103316.94;;;5.60;68.48
78383;BME280;67668;52.294;4.692;2023-02-28T00:20:14;103320.41;;;5.61;68.37
78383;BME280;67668;52.294;4.692;2023-02-28T00:22:46;103315.22;;;5.59;68.28
78383;BME280;67668;52.294;4.692;2023-02-28T00:25:14;103320.47;;;5.59;68.37
78383;BME280;67668;52.294;4.692;2023-02-28T00:27:40;103313.47;;;5.60;68.45
78383;BME280;67668;52.294;4.692;2023-02-28T00:30:08;103317.84;;;5.59;68.73
78383;BME280;67668;52.294;4.692;2023-02-28T00:32:34;103317.78;;;5.61;68.12
78383;BME280;67668;52.294;4.692;2023-02-28T00:35:00;103316.94;;;5.60;68.43
78383;BME280;67668;52.294;4.692;2023-02-28T00:37:26;103321.34;;;5.60;68.50
78383;BME280;67668;52.294;4.692;2023-02-28T00:39:51;103322.19;;;5.60;68.39
78383;BME280;67668;52.294;4.692;2023-02-28T00:42:17;103322.25;;;5.59;68.59
78383;BME280;67668;52.294;4.692;2023-02-28T00:44:42;103315.25;;;5.58;68.86
78383;BME280;67668;52.294;4.692;2023-02-28T00:47:07;103322.25;;;5.59;68.89
78383;BME280;67668;52.294;4.692;2023-02-28T00:49:33;103320.47;;;5.59;68.58
78383;BME280;67668;52.294;4.692;2023-02-28T00:51:58;103315.22;;;5.59;68.71
78383;BME280;67668;52.294;4.692;2023-02-28T00:54:24;103310.88;;;5.58;68.79
78383;BME280;67668;52.294;4.692;2023-02-28T00:56:50;103312.63;;;5.58;69.08
78383;BME280;67668;52.294;4.692;2023-02-28T00:59:16;103303.00;;;5.58;69.00
78383;BME280;67668;52.294;4.692;2023-02-28T01:04:17;103300.34;;;5.60;69.09
78383;BME280;67668;52.294;4.692;2023-02-28T01:06:43;103309.88;;;5.62;69.08
78383;BME280;67668;52.294;4.692;2023-02-28T01:09:08;103305.47;;;5.63;69.30
78383;BME280;67668;52.294;4.692;2023-02-28T01:11:34;103307.19;;;5.64;69.17
78383;BME280;67668;52.294;4.692;2023-02-28T01:14:00;103312.44;;;5.64;69.38
78383;BME280;67668;52.294;4.692;2023-02-28T01:16:26;103315.88;;;5.66;68.79
78383;BME280;67668;52.294;4.692;2023-02-28T01:18:51;103311.50;;;5.66;69.25
78383;BME280;67668;52.294;4.692;2023-02-28T01:21:19;103304.50;;;5.65;69.24
78383;BME280;67668;52.294;4.692;2023-02-28T01:23:45;103308.00;;;5.66;69.54
78383;BME280;67668;52.294;4.692;2023-02-28T01:26:19;103304.50;;;5.65;69.18
78383;BME280;67668;52.294;4.692;2023-02-28T01:28:45;103301.81;;;5.67;69.43
78383;BME280;67668;52.294;4.692;2023-02-28T01:31:10;103296.56;;;5.67;69.13
78383;BME280;67668;52.294;4.692;2023-02-28T01:33:37;103305.31;;;5.67;68.87
78383;BME280;67668;52.294;4.692;2023-02-28T01:36:15;103299.19;;;5.67;69.46
78383;BME280;67668;52.294;4.692;2023-02-28T01:38:41;103298.38;;;5.66;69.32
78383;BME280;67668;52.294;4.692;2023-02-28T01:41:07;103294.88;;;5.66;69.53
78383;BME280;67668;52.294;4.692;2023-02-28T01:46:17;103293.94;;;5.67;69.40
78383;BME280;67668;52.294;4.692;2023-02-28T01:48:47;103294.81;;;5.67;69.48
78383;BME280;67668;52.294;4.692;2023-02-28T01:51:46;103291.31;;;5.67;69.38
78383;BME280;67668;52.294;4.692;2023-02-28T01:54:27;103286.91;;;5.67;69.55
78383;BME280;67668;52.294;4.692;2023-02-28T01:57:07;103282.59;;;5.66;69.49
78383;BME280;67668;52.294;4.692;2023-02-28T01:59:59;103281.66;;;5.67;69.74
78383;BME280;67668;52.294;4.692;2023-02-28T02:02:29;103275.50;;;5.68;69.63
78383;BME280;67668;52.294;4.692;2023-02-28T02:05:07;103278.13;;;5.68;69.67
78383;BME280;67668;52.294;4.692;2023-02-28T02:07:35;103282.53;;;5.68;69.64
78383;BME280;67668;52.294;4.692;2023-02-28T02:10:14;103277.25;;;5.69;69.63
78383;BME280;67668;52.294;4.692;2023-02-28T02:15:48;103283.38;;;5.70;69.95
78383;BME280;67668;52.294;4.692;2023-02-28T02:18:27;103277.25;;;5.69;69.82
78383;BME280;67668;52.294;4.692;2023-02-28T02:21:04;103270.25;;;5.68;69.62
78383;BME280;67668;52.294;4.692;2023-02-28T02:26:37;103267.63;;;5.68;70.38
78383;BME280;67668;52.294;4.692;2023-02-28T02:34:45;103259.75;;;5.68;70.77
78383;BME280;67668;52.294;4.692;2023-02-28T02:37:25;103258.88;;;5.68;70.26
78383;BME280;67668;52.294;4.692;2023-02-28T02:40:18;103257.13;;;5.68;70.41
78383;BME280;67668;52.294;4.692;2023-02-28T02:42:55;103262.34;;;5.70;70.26
78383;BME280;67668;52.294;4.692;2023-02-28T02:45:30;103253.59;;;5.69;70.04
78383;BME280;67668;52.294;4.692;2023-02-28T02:48:02;103257.09;;;5.70;70.08
78383;BME280;67668;52.294;4.692;2023-02-28T02:50:41;103264.91;;;5.71;70.15
78383;BME280;67668;52.294;4.692;2023-02-28T02:53:09;103260.53;;;5.70;69.94
78383;BME280;67668;52.294;4.692;2023-02-28T02:55:39;103257.91;;;5.70;69.87
78383;BME280;67668;52.294;4.692;2023-02-28T02:58:10;103264.00;;;5.72;70.33
78383;BME280;67668;52.294;4.692;2023-02-28T03:00:43;103248.25;;;5.72;69.92
78383;BME280;67668;52.294;4.692;2023-02-28T03:03:12;103258.75;;;5.72;70.24
78383;BME280;67668;52.294;4.692;2023-02-28T03:05:57;103258.69;;;5.74;70.22
78383;BME280;67668;52.294;4.692;2023-02-28T03:08:24;103262.16;;;5.74;70.19
78383;BME280;67668;52.294;4.692;2023-02-28T03:10:51;103265.66;;;5.75;70.46
78383;BME280;67668;52.294;4.692;2023-02-28T03:13:29;103263.91;;;5.76;70.51
78383;BME280;67668;52.294;4.692;2023-02-28T03:23:57;103252.53;;;5.75;70.15
78383;BME280;67668;52.294;4.692;2023-02-28T03:26:27;103255.13;;;5.77;70.45
78383;BME280;67668;52.294;4.692;2023-02-28T03:29:15;103260.38;;;5.77;70.65
78383;BME280;67668;52.294;4.692;2023-02-28T03:32:04;103253.31;;;5.77;70.43
78383;BME280;67668;52.294;4.692;2023-02-28T03:34:34;103249.00;;;5.76;70.22
78383;BME280;67668;52.294;4.692;2023-02-28T03:37:09;103254.25;;;5.76;70.93
78383;BME280;67668;52.294;4.692;2023-02-28T03:39:45;103253.31;;;5.77;70.70
78383;BME280;67668;52.294;4.692;2023-02-28T03:42:22;103244.59;;;5.77;70.63
78383;BME280;67668;52.294;4.692;2023-02-28T03:45:00;103246.38;;;5.76;70.80
78383;BME280;67668;52.294;4.692;2023-02-28T03:47:35;103253.38;;;5.76;70.79
78383;BME280;67668;52.294;4.692;2023-02-28T03:50:22;103250.75;;;5.76;70.76
78383;BME280;67668;52.294;4.692;2023-02-28T03:53:04;103251.72;;;5.73;70.40
78383;BME280;67668;52.294;4.692;2023-02-28T03:55:38;103263.16;;;5.70;70.39
78383;BME280;67668;52.294;4.692;2023-02-28T03:58:29;103263.28;;;5.67;69.48
78383;BME280;67668;52.294;4.692;2023-02-28T04:01:07;103264.16;;;5.68;70.06
78383;BME280;67668;52.294;4.692;2023-02-28T04:03:37;103257.22;;;5.65;70.22
78383;BME280;67668;52.294;4.692;2023-02-28T04:06:04;103258.13;;;5.64;69.68
78383;BME280;67668;52.294;4.692;2023-02-28T04:08:30;103260.75;;;5.64;70.12
78383;BME280;67668;52.294;4.692;2023-02-28T04:11:34;103261.66;;;5.63;69.90
78383;BME280;67668;52.294;4.692;2023-02-28T04:13:51;103259.03;;;5.63;70.12
78383;BME280;67668;52.294;4.692;2023-02-28T04:16:17;103255.50;;;5.64;70.01
78383;BME280;67668;52.294;4.692;2023-02-28T04:18:42;103258.13;;;5.64;69.70
78383;BME280;67668;52.294;4.692;2023-02-28T04:21:11;103258.09;;;5.66;69.84
78383;BME280;67668;52.294;4.692;2023-02-28T04:23:37;103250.25;;;5.64;70.24
78383;BME280;67668;52.294;4.692;2023-02-28T04:26:03;103251.13;;;5.65;69.65
78383;BME280;67668;52.294;4.692;2023-02-28T04:28:29;103246.75;;;5.64;69.50
78383;BME280;67668;52.294;4.692;2023-02-28T04:31:00;103245.91;;;5.63;69.46
78383;BME280;67668;52.294;4.692;2023-02-28T04:33:27;103243.28;;;5.63;69.92
78383;BME280;67668;52.294;4.692;2023-02-28T04:36:01;103245.00;;;5.64;70.18
78383;BME280;67668;52.294;4.692;2023-02-28T04:38:29;103248.53;;;5.63;69.93
78383;BME280;67668;52.294;4.692;2023-02-28T04:40:57;103244.13;;;5.64;70.16
78383;BME280;67668;52.294;4.692;2023-02-28T04:43:22;103246.81;;;5.62;70.40
78383;BME280;67668;52.294;4.692;2023-02-28T04:45:48;103245.09;;;5.61;70.17
78383;BME280;67668;52.294;4.692;2023-02-28T04:48:13;103248.63;;;5.60;70.28
78383;BME280;67668;52.294;4.692;2023-02-28T04:50:38;103247.72;;;5.61;70.64
78383;BME280;67668;52.294;4.692;2023-02-28T04:53:04;103259.13;;;5.60;70.23
78383;BME280;67668;52.294;4.692;2023-02-28T04:55:29;103253.88;;;5.60;70.62
78383;BME280;67668;52.294;4.692;2023-02-28T04:57:55;103256.47;;;5.62;70.82
78383;BME280;67668;52.294;4.692;2023-02-28T05:00:20;103253.84;;;5.62;70.41
78383;BME280;67668;52.294;4.692;2023-02-28T05:02:45;103256.47;;;5.62;70.31
78383;BME280;67668;52.294;4.692;2023-02-28T05:05:11;103256.41;;;5.63;70.29
78383;BME280;67668;52.294;4.692;2023-02-28T05:07:43;103262.63;;;5.61;70.16
78383;BME280;67668;52.294;4.692;2023-02-28T05:10:10;103253.06;;;5.60;70.17
78383;BME280;67668;52.294;4.692;2023-02-28T05:12:35;103249.59;;;5.58;69.95
78383;BME280;67668;52.294;4.692;2023-02-28T05:15:00;103253.97;;;5.57;69.77
78383;BME280;67668;52.294;4.692;2023-02-28T05:17:27;103259.25;;;5.57;70.05
78383;BME280;67668;52.294;4.692;2023-02-28T05:19:52;103251.47;;;5.54;69.76
78383;BME280;67668;52.294;4.692;2023-02-28T05:22:18;103257.53;;;5.56;69.63
78383;BME280;67668;52.294;4.692;2023-02-28T05:24:43;103258.44;;;5.55;69.52
78383;BME280;67668;52.294;4.692;2023-02-28T05:27:09;103262.91;;;5.53;69.83
78383;BME280;67668;52.294;4.692;2023-02-28T05:29:34;103257.56;;;5.55;68.95
78383;BME280;67668;52.294;4.692;2023-02-28T05:32:08;103248.94;;;5.51;69.33
78383;BME280;67668;52.294;4.692;2023-02-28T05:34:34;103253.31;;;5.51;68.79
78383;BME280;67668;52.294;4.692;2023-02-28T05:37:00;103263.91;;;5.49;69.90
78383;BME280;67668;52.294;4.692;2023-02-28T05:39:26;103253.50;;;5.46;69.48
78383;BME280;67668;52.294;4.692;2023-02-28T05:41:51;103255.19;;;5.47;69.65
78383;BME280;67668;52.294;4.692;2023-02-28T05:44:17;103252.66;;;5.44;69.71
78383;BME280;67668;52.294;4.692;2023-02-28T05:46:42;103261.41;;;5.45;69.35
78383;BME280;67668;52.294;4.692;2023-02-28T05:49:08;103264.91;;;5.45;69.45
78383;BME280;67668;52.294;4.692;2023-02-28T05:51:33;103270.16;;;5.45;68.84
78383;BME280;67668;52.294;4.692;2023-02-28T05:54:01;103269.25;;;5.46;69.01
78383;BME280;67668;52.294;4.692;2023-02-28T05:56:27;103266.66;;;5.45;68.39
78383;BME280;67668;52.294;4.692;2023-02-28T05:58:52;103269.34;;;5.43;69.04
78383;BME280;67668;52.294;4.692;2023-02-28T06:01:36;103273.78;;;5.41;69.38
78383;BME280;67668;52.294;4.692;2023-02-28T06:04:03;103269.38;;;5.42;69.48
78383;BME280;67668;52.294;4.692;2023-02-28T06:06:29;103264.94;;;5.44;69.57
78383;BME280;67668;52.294;4.692;2023-02-28T06:08:59;103267.56;;;5.44;70.04
78383;BME280;67668;52.294;4.692;2023-02-28T06:11:26;103271.91;;;5.45;69.83
78383;BME280;67668;52.294;4.692;2023-02-28T06:13:59;103262.16;;;5.48;70.22
78383;BME280;67668;52.294;4.692;2023-02-28T06:16:26;103262.28;;;5.45;70.25
78383;BME280;67668;52.294;4.692;2023-02-28T06:18:52;103265.69;;;5.47;69.76
78383;BME280;67668;52.294;4.692;2023-02-28T06:21:22;103271.88;;;5.46;69.81
78383;BME280;67668;52.294;4.692;2023-02-28T06:23:47;103268.44;;;5.44;70.03
78383;BME280;67668;52.294;4.692;2023-02-28T06:26:13;103269.53;;;5.37;70.41
78383;BME280;67668;52.294;4.692;2023-02-28T06:28:39;103274.00;;;5.34;70.79
78383;BME280;67668;52.294;4.692;2023-02-28T06:31:09;103272.34;;;5.31;70.97
78383;BME280;67668;52.294;4.692;2023-02-28T06:33:36;103272.31;;;5.33;70.89
78383;BME280;67668;52.294;4.692;2023-02-28T06:36:02;103270.66;;;5.30;71.14
78383;BME280;67668;52.294;4.692;2023-02-28T06:38:28;103282.09;;;5.28;71.41
78383;BME280;67668;52.294;4.692;2023-02-28T06:40:55;103283.00;;;5.27;71.56
78383;BME280;67668;52.294;4.692;2023-02-28T06:43:22;103281.22;;;5.27;71.62
78383;BME280;67668;52.294;4.692;2023-02-28T06:45:47;103275.06;;;5.28;71.64
78383;BME280;67668;52.294;4.692;2023-02-28T06:48:12;103283.91;;;5.26;71.58
78383;BME280;67668;52.294;4.692;2023-02-28T06:50:38;103276.94;;;5.25;71.82
78383;BME280;67668;52.294;4.692;2023-02-28T06:53:03;103285.75;;;5.24;71.72
78383;BME280;67668;52.294;4.692;2023-02-28T06:55:29;103286.63;;;5.22;72.21
78383;BME280;67668;52.294;4.692;2023-02-28T06:57:54;103296.25;;;5.24;72.09
78383;BME280;67668;52.294;4.692;2023-02-28T07:00:23;103298.91;;;5.22;72.22
78383;BME280;67668;52.294;4.692;2023-02-28T07:02:48;103305.09;;;5.19;72.17
78383;BME280;67668;52.294;4.692;2023-02-28T07:05:13;103310.47;;;5.15;72.72
78383;BME280;67668;52.294;4.692;2023-02-28T07:07:39;103313.31;;;5.09;72.92
78383;BME280;67668;52.294;4.692;2023-02-28T07:10:12;103314.25;;;5.06;72.93
78383;BME280;67668;52.294;4.692;2023-02-28T07:12:39;103315.13;;;5.07;72.81
78383;BME280;67668;52.294;4.692;2023-02-28T07:15:05;103323.13;;;5.02;72.73
78383;BME280;67668;52.294;4.692;2023-02-28T07:17:31;103311.84;;;4.99;72.65
78383;BME280;67668;52.294;4.692;2023-02-28T07:19:56;103318.09;;;4.95;72.76
78383;BME280;67668;52.294;4.692;2023-02-28T07:22:22;103307.75;;;4.90;72.50
78383;BME280;67668;52.294;4.692;2023-02-28T07:24:47;103313.16;;;4.84;73.10
78383;BME280;67668;52.294;4.692;2023-02-28T07:27:13;103319.41;;;4.80;72.79
78383;BME280;67668;52.294;4.692;2023-02-28T07:29:49;103317.69;;;4.79;72.63
78383;BME280;67668;52.294;4.692;2023-02-28T07:32:15;103328.19;;;4.78;72.27
78383;BME280;67668;52.294;4.692;2023-02-28T07:34:41;103317.03;;;4.71;72.38
78383;BME280;67668;52.294;4.692;2023-02-28T07:37:06;103323.28;;;4.67;72.48
78383;BME280;67668;52.294;4.692;2023-02-28T07:39:32;103319.03;;;4.63;73.17
78383;BME280;67668;52.294;4.692;2023-02-28T07:41:57;103333.00;;;4.63;72.57
78383;BME280;67668;52.294;4.692;2023-02-28T07:44:22;103330.53;;;4.57;71.93
78383;BME280;67668;52.294;4.692;2023-02-28T07:46:48;103336.69;;;4.56;72.60
78383;BME280;67668;52.294;4.692;2023-02-28T07:49:13;103334.25;;;4.50;72.75
78383;BME280;67668;52.294;4.692;2023-02-28T07:51:39;103330.78;;;4.48;72.25
78383;BME280;67668;52.294;4.692;2023-02-28T07:54:04;103323.84;;;4.47;72.43
78383;BME280;67668;52.294;4.692;2023-02-28T07:56:30;103335.25;;;4.45;72.54
78383;BME280;67668;52.294;4.692;2023-02-28T07:58:55;103336.25;;;4.41;73.16
78383;BME280;67668;52.294;4.692;2023-02-28T08:01:21;103331.94;;;4.38;72.95
78383;BME280;67668;52.294;4.692;2023-02-28T08:03:46;103320.72;;;4.33;73.51
78383;BME280;67668;52.294;4.692;2023-02-28T08:06:18;103329.44;;;4.34;73.32
78383;BME280;67668;52.294;4.692;2023-02-28T08:08:44;103331.28;;;4.30;73.49
78383;BME280;67668;52.294;4.692;2023-02-28T08:11:09;103331.22;;;4.33;73.30
78383;BME280;67668;52.294;4.692;2023-02-28T08:13:35;103340.81;;;4.33;73.50
78383;BME280;67668;52.294;4.692;2023-02-28T08:16:01;103337.44;;;4.28;73.21
78383;BME280;67668;52.294;4.692;2023-02-28T08:18:27;103346.25;;;4.27;73.37
78383;BME280;67668;52.294;4.692;2023-02-28T08:20:52;103343.63;;;4.25;73.58
78383;BME280;67668;52.294;4.692;2023-02-28T08:23:17;103350.69;;;4.23;73.77
78383;BME280;67668;52.294;4.692;2023-02-28T08:25:44;103335.84;;;4.24;73.96
78383;BME280;67668;52.294;4.692;2023-02-28T08:28:09;103334.88;;;4.26;74.27
78383;BME280;67668;52.294;4.692;2023-02-28T08:30:35;103336.63;;;4.27;73.99
78383;BME280;67668;52.294;4.692;2023-02-28T08:33:00;103330.50;;;4.27;73.55
78383;BME280;67668;52.294;4.692;2023-02-28T08:35:26;103333.16;;;4.25;73.61
78383;BME280;67668;52.294;4.692;2023-02-28T08:37:53;103335.06;;;4.20;73.85
78383;BME280;67668;52.294;4.692;2023-02-28T08:40:18;103328.06;;;4.19;74.30
78383;BME280;67668;52.294;4.692;2023-02-28T08:42:47;103341.25;;;4.18;74.30
78383;BME280;67668;52.294;4.692;2023-02-28T08:45:14;103336.88;;;4.16;73.83
78383;BME280;67668;52.294;4.692;2023-02-28T08:47:40;103341.28;;;4.14;74.87
78383;BME280;67668;52.294;4.692;2023-02-28T08:50:07;103336.91;;;4.15;74.15
78383;BME280;67668;52.294;4.692;2023-02-28T08:52:32;103331.75;;;4.12;74.33
78383;BME280;67668;52.294;4.692;2023-02-28T08:54:58;103334.44;;;4.10;74.51
78383;BME280;67668;52.294;4.692;2023-02-28T08:57:24;103330.03;;;4.11;74.94
78383;BME280;67668;52.294;4.692;2023-02-28T08:59:51;103337.06;;;4.10;74.70
78383;BME280;67668;52.294;4.692;2023-02-28T09:02:17;103343.97;;;4.13;74.76
78383;BME280;67668;52.294;4.692;2023-02-28T09:04:42;103323.81;;;4.15;75.34
78383;BME280;67668;52.294;4.692;2023-02-28T09:07:11;103319.41;;;4.17;75.12
78383;BME280;67668;52.294;4.692;2023-02-28T09:09:36;103329.81;;;4.20;75.31
78383;BME280;67668;52.294;4.692;2023-02-28T09:12:02;103334.09;;;4.23;75.24
78383;BME280;67668;52.294;4.692;2023-02-28T09:14:27;103332.28;;;4.25;75.06
78383;BME280;67668;52.294;4.692;2023-02-28T09:16:52;103317.41;;;4.27;75.25
78383;BME280;67668;52.294;4.692;2023-02-28T09:19:18;103318.28;;;4.27;75.44
78383;BME280;67668;52.294;4.692;2023-02-28T09:21:43;103322.56;;;4.30;74.87
78383;BME280;67668;52.294;4.692;2023-02-28T09:24:09;103316.44;;;4.31;74.88
78383;BME280;67668;52.294;4.692;2023-02-28T09:26:37;103324.16;;;4.35;75.21
78383;BME280;67668;52.294;4.692;2023-02-28T09:29:02;103321.50;;;4.37;75.37
78383;BME280;67668;52.294;4.692;2023-02-28T09:31:29;103331.03;;;4.39;74.76
78383;BME280;67668;52.294;4.692;2023-02-28T09:33:56;103329.22;;;4.41;74.75
78383;BME280;67668;52.294;4.692;2023-02-28T09:36:22;103326.56;;;4.43;74.99
78383;BME280;67668;52.294;4.692;2023-02-28T09:38:49;103333.50;;;4.45;74.74
78383;BME280;67668;52.294;4.692;2023-02-28T09:41:26;103329.91;;;4.48;74.96
78383;BME280;67668;52.294;4.692;2023-02-28T09:43:58;103331.63;;;4.50;75.33
78383;BME280;67668;52.294;4.692;2023-02-28T09:46:40;103334.16;;;4.53;75.08
78383;BME280;67668;52.294;4.692;2023-02-28T09:49:13;103323.59;;;4.56;74.96
78383;BME280;67668;52.294;4.692;2023-02-28T09:51:46;103333.97;;;4.59;74.66
78383;BME280;67668;52.294;4.692;2023-02-28T09:54:20;103340.03;;;4.61;74.91
78383;BME280;67668;52.294;4.692;2023-02-28T09:56:56;103343.41;;;4.66;75.21
78383;BME280;67668;52.294;4.692;2023-02-28T09:59:42;103338.94;;;4.70;75.34
78383;BME280;67668;52.294;4.692;2023-02-28T10:08:28;103346.66;;;4.75;74.02
78383;BME280;67668;52.294;4.692;2023-02-28T10:11:01;103345.75;;;4.76;74.08
78383;BME280;67668;52.294;4.692;2023-02-28T10:13:56;103342.25;;;4.77;72.03
78383;BME280;67668;52.294;4.692;2023-02-28T10:16:34;103337.03;;;4.75;72.46
78383;BME280;67668;52.294;4.692;2023-02-28T10:19:10;103330.13;;;4.73;72.45
78383;BME280;67668;52.294;4.692;2023-02-28T10:21:41;103340.50;;;4.76;72.19
78383;BME280;67668;52.294;4.692;2023-02-28T10:26:45;103340.59;;;4.73;71.78
78383;BME280;67668;52.294;4.692;2023-02-28T10:29:11;103344.03;;;4.75;72.50
78383;BME280;67668;52.294;4.692;2023-02-28T10:31:36;103344.88;;;4.77;71.65
78383;BME280;67668;52.294;4.692;2023-02-28T10:34:03;103350.91;;;4.79;71.49
78383;BME280;67668;52.294;4.692;2023-02-28T10:36:29;103340.50;;;4.76;72.23
78383;BME280;67668;52.294;4.692;2023-02-28T10:38:54;103330.13;;;4.73;71.89
78383;BME280;67668;52.294;4.692;2023-02-28T10:41:27;103346.75;;;4.72;71.91
78383;BME280;67668;52.294;4.692;2023-02-28T10:44:12;103345.75;;;4.76;72.45
78383;BME280;67668;52.294;4.692;2023-02-28T10:46:39;103348.28;;;4.80;70.34
78383;BME280;67668;52.294;4.692;2023-02-28T10:49:13;103349.94;;;4.83;69.85
78383;BME280;67668;52.294;4.692;2023-02-28T10:51:40;103351.69;;;4.82;69.56
78383;BME280;67668;52.294;4.692;2023-02-28T10:54:15;103347.41;;;4.80;69.67
78383;BME280;67668;52.294;4.692;2023-02-28T10:56:41;103353.53;;;4.80;68.91
78383;BME280;67668;52.294;4.692;2023-02-28T11:01:50;103348.38;;;4.76;69.71
78383;BME280;67668;52.294;4.692;2023-02-28T11:06:56;103337.00;;;4.77;70.55
78383;BME280;67668;52.294;4.692;2023-02-28T11:09:27;103336.03;;;4.79;69.84
78383;BME280;67668;52.294;4.692;2023-02-28T11:11:55;103331.56;;;4.83;70.05
78383;BME280;67668;52.294;4.692;2023-02-28T11:14:22;103320.34;;;4.78;68.46
78383;BME280;67668;52.294;4.692;2023-02-28T11:16:50;103323.91;;;4.75;68.21
78383;BME280;67668;52.294;4.692;2023-02-28T11:19:25;103336.91;;;4.80;69.36
78383;BME280;67668;52.294;4.692;2023-02-28T11:21:59;103321.78;;;4.88;69.54
78383;BME280;67668;52.294;4.692;2023-02-28T11:24:28;103316.44;;;4.91;68.99
78383;BME280;67668;52.294;4.692;2023-02-28T11:26:55;103318.16;;;4.93;67.42
78383;BME280;67668;52.294;4.692;2023-02-28T11:29:26;103315.34;;;4.99;67.36
78383;BME280;67668;52.294;4.692;2023-02-28T11:32:20;103317.06;;;5.00;65.51
78383;BME280;67668;52.294;4.692;2023-02-28T11:35:00;103311.66;;;5.05;66.80
78383;BME280;67668;52.294;4.692;2023-02-28T11:37:27;103310.59;;;5.12;66.67
78383;BME280;67668;52.294;4.692;2023-02-28T11:39:52;103306.75;;;5.24;64.14
78383;BME280;67668;52.294;4.692;2023-02-28T11:42:48;103312.66;;;5.30;63.60
78383;BME280;67668;52.294;4.692;2023-02-28T11:45:42;103313.38;;;5.35;64.68
78383;BME280;67668;52.294;4.692;2023-02-28T11:48:15;103313.06;;;5.44;64.05
78383;BME280;67668;52.294;4.692;2023-02-28T11:51:02;103310.31;;;5.49;61.97
78383;BME280;67668;52.294;4.692;2023-02-28T11:59:34;103301.06;;;5.63;61.30
78383;BME280;67668;52.294;4.692;2023-02-28T12:07:16;103289.94;;;5.83;61.74
78383;BME280;67668;52.294;4.692;2023-02-28T12:21:02;103276.00;;;6.31;62.58
78383;BME280;67668;52.294;4.692;2023-02-28T12:29:10;103268.97;;;6.56;59.38
78383;BME280;67668;52.294;4.692;2023-02-28T12:31:46;103260.88;;;6.60;56.33
78383;BME280;67668;52.294;4.692;2023-02-28T12:34:19;103266.75;;;6.68;60.46
78383;BME280;67668;52.294;4.692;2023-02-28T12:36:47;103269.91;;;6.76;56.72
78383;BME280;67668;52.294;4.692;2023-02-28T12:39:26;103274.13;;;6.82;57.72
78383;BME280;67668;52.294;4.692;2023-02-28T12:41:59;103272.97;;;6.89;58.61
78383;BME280;67668;52.294;4.692;2023-02-28T12:44:30;103270.16;;;6.94;55.38
78383;BME280;67668;52.294;4.692;2023-02-28T12:47:00;103276.00;;;7.02;58.95
78383;BME280;67668;52.294;4.692;2023-02-28T12:49:33;103266.06;;;7.08;59.50
78383;BME280;67668;52.294;4.692;2023-02-28T12:52:01;103262.34;;;7.14;55.71
78383;BME280;67668;52.294;4.692;2023-02-28T12:54:38;103262.66;;;7.28;57.94
78383;BME280;67668;52.294;4.692;2023-02-28T12:59:55;103253.88;;;7.49;58.33
78383;BME280;67668;52.294;4.692;2023-02-28T13:05:19;103248.75;;;7.66;58.97
78383;BME280;67668;52.294;4.692;2023-02-28T13:10:48;103235.22;;;7.75;51.47
78383;BME280;67668;52.294;4.692;2023-02-28T13:13:21;103240.22;;;7.82;52.01
78383;BME280;67668;52.294;4.692;2023-02-28T13:16:07;103232.06;;;7.88;52.44
78383;BME280;67668;52.294;4.692;2023-02-28T13:18:37;103236.06;;;7.96;51.58
78383;BME280;67668;52.294;4.692;2023-02-28T13:21:06;103233.88;;;8.06;53.42
78383;BME280;67668;52.294;4.692;2023-02-28T13:34:37;103212.75;;;8.26;51.13
78383;BME280;67668;52.294;4.692;2023-02-28T13:39:57;103208.63;;;8.41;51.54
78383;BME280;67668;52.294;4.692;2023-02-28T13:47:30;103210.91;;;8.48;45.00
78383;BME280;67668;52.294;4.692;2023-02-28T13:50:21;103198.78;;;8.44;43.62
78383;BME280;67668;52.294;4.692;2023-02-28T13:58:54;103193.78;;;8.57;44.57
78383;BME280;67668;52.294;4.692;2023-02-28T14:07:03;103189.91;;;8.82;46.33
78383;BME280;67668;52.294;4.692;2023-02-28T14:09:32;103192.56;;;8.82;45.57
78383;BME280;67668;52.294;4.692;2023-02-28T14:15:03;103184.97;;;8.94;45.30
78383;BME280;67668;52.294;4.692;2023-02-28T14:17:31;103181.03;;;9.02;47.08
78383;BME280;67668;52.294;4.692;2023-02-28T14:19:57;103186.09;;;9.07;47.60
78383;BME280;67668;52.294;4.692;2023-02-28T14:22:49;103183.25;;;9.11;48.09
78383;BME280;67668;52.294;4.692;2023-02-28T14:27:50;103186.44;;;9.18;49.55
78383;BME280;67668;52.294;4.692;2023-02-28T14:30:40;103172.97;;;9.22;49.85
78383;BME280;67668;52.294;4.692;2023-02-28T14:36:03;103175.72;;;9.21;50.65
78383;BME280;67668;52.294;4.692;2023-02-28T14:38:36;103174.63;;;9.25;50.72
78383;BME280;67668;52.294;4.692;2023-02-28T14:41:04;103171.97;;;9.25;49.28
78383;BME280;67668;52.294;4.692;2023-02-28T14:43:32;103176.28;;;9.27;50.65
78383;BME280;67668;52.294;4.692;2023-02-28T14:45:58;103177.19;;;9.26;49.26
78383;BME280;67668;52.294;4.692;2023-02-28T14:48:24;103182.38;;;9.28;50.36
78383;BME280;67668;52.294;4.692;2023-02-28T14:50:53;103171.81;;;9.28;50.23
78383;BME280;67668;52.294;4.692;2023-02-28T14:53:21;103176.28;;;9.27;50.89
78383;BME280;67668;52.294;4.692;2023-02-28T14:55:48;103173.53;;;9.29;51.09
78383;BME280;67668;52.294;4.692;2023-02-28T14:58:22;103180.69;;;9.27;49.49
78383;BME280;67668;52.294;4.692;2023-02-28T15:00:50;103172.97;;;9.22;50.91
78383;BME280;67668;52.294;4.692;2023-02-28T15:03:33;103177.41;;;9.22;52.13
78383;BME280;67668;52.294;4.692;2023-02-28T15:06:02;103181.00;;;9.21;51.91
78383;BME280;67668;52.294;4.692;2023-02-28T15:08:28;103178.53;;;9.18;51.32